Time;durP1;ratioP1;P1;durP2;ratioP2;P2;SDS_P1;SDS_P2;PMS_P1;PMS_P2;Temp;Humidity;BMP_temperature;BMP_pressure;BME280_temperature;BME280_humidity;BME280_pressure;Samples;Min_cycle;Max_cycle;Signal;HPM_P1;HPM_P2
2021/03/06 00:01:04;;;;;;;;;;;13.00;53.10;;;;;;2094063;28;1070;-54
2021/03/06 00:02:23;;;;;;;;;;;13.00;53.10;;;;;;2097808;28;1973;-54
2021/03/06 00:03:42;;;;;;;;;;;13.00;53.10;;;;;;2097933;28;1371;-53
2021/03/06 00:05:01;;;;;;;;;;;13.00;53.10;;;;;;2096953;28;1175;-56
2021/03/06 00:06:20;;;;;;;;;;;13.00;53.20;;;;;;2091032;28;1408;-53
2021/03/06 00:07:39;;;;;;;;;;;13.00;53.20;;;;;;2089753;28;756;-51
2021/03/06 00:08:58;;;;;;;;;;;13.00;53.20;;;;;;2089238;28;763;-56
2021/03/06 00:10:18;;;;;;;;;;;13.00;53.20;;;;;;2089075;28;840;-53
2021/03/06 00:11:37;;;;;;;;;;;13.00;53.20;;;;;;2089502;28;758;-53
2021/03/06 00:12:56;;;;;;;;;;;13.00;53.70;;;;;;2088902;28;857;-53
2021/03/06 00:14:15;;;;;;;;;;;12.90;53.70;;;;;;2085703;28;1198;-53
2021/03/06 00:15:35;;;;;;;;;;;13.00;53.30;;;;;;2088991;28;841;-52
2021/03/06 00:16:54;;;;;;;;;;;12.90;53.20;;;;;;2084151;28;815;-52
2021/03/06 00:18:13;;;;;;;;;;;12.90;53.20;;;;;;2084409;28;745;-58
2021/03/06 00:19:33;;;;;;;;;;;12.90;53.20;;;;;;2086852;28;742;-51
2021/03/06 00:20:52;;;;;;;;;;;12.90;53.20;;;;;;2088007;28;761;-53
2021/03/06 00:22:11;;;;;;;;;;;12.90;53.30;;;;;;2085475;28;1981;-54
2021/03/06 00:23:30;;;;;;;;;;;12.90;53.30;;;;;;2083513;28;1389;-53
2021/03/06 00:24:50;;;;;;;;;;;12.90;53.40;;;;;;2084527;28;749;-52
2021/03/06 00:26:09;;;;;;;;;;;12.90;53.30;;;;;;2084639;28;793;-54
2021/03/06 00:27:28;;;;;;;;;;;12.90;53.40;;;;;;2088413;28;762;-50
2021/03/06 00:28:48;;;;;;;;;;;12.90;53.40;;;;;;2085595;28;961;-53
2021/03/06 00:30:10;;;;;;;;;;;12.90;53.40;;;;;;2097431;28;730;-53
2021/03/06 00:31:29;;;;;;;;;;;12.80;53.90;;;;;;2081361;28;766;-51
2021/03/06 00:32:48;;;;;;;;;;;12.90;53.40;;;;;;2081358;28;736;-53
2021/03/06 00:34:07;;;;;;;;;;;12.80;53.40;;;;;;2080789;28;730;-50
2021/03/06 00:35:27;;;;;;;;;;;12.80;53.40;;;;;;2076594;28;701;-52
2021/03/06 00:36:46;;;;;;;;;;;12.80;53.40;;;;;;2081173;28;725;-52
2021/03/06 00:38:05;;;;;;;;;;;12.80;54.00;;;;;;2080570;28;749;-53
2021/03/06 00:39:25;;;;;;;;;;;12.80;53.50;;;;;;2081093;28;865;-50
2021/03/06 00:40:44;;;;;;;;;;;12.80;53.50;;;;;;2081180;28;775;-54
2021/03/06 00:42:03;;;;;;;;;;;12.80;53.50;;;;;;2086154;28;2059;-53
2021/03/06 00:43:23;;;;;;;;;;;12.80;53.50;;;;;;2088851;28;1512;-52
2021/03/06 00:44:42;;;;;;;;;;;12.80;54.00;;;;;;2085606;28;1377;-57
2021/03/06 00:46:01;;;;;;;;;;;12.80;54.10;;;;;;2089072;28;1502;-53
2021/03/06 00:47:20;;;;;;;;;;;12.70;54.00;;;;;;2088734;28;1714;-51
2021/03/06 00:48:39;;;;;;;;;;;12.70;53.50;;;;;;2088724;28;889;-54
2021/03/06 00:49:58;;;;;;;;;;;12.70;53.50;;;;;;2088965;28;1004;-55
2021/03/06 00:51:18;;;;;;;;;;;12.70;53.60;;;;;;2088854;28;1133;-51
2021/03/06 00:52:37;;;;;;;;;;;12.70;53.60;;;;;;2077255;28;785;-53
2021/03/06 00:53:57;;;;;;;;;;;12.70;53.60;;;;;;2081167;28;1371;-56
2021/03/06 00:55:18;;;;;;;;;;;12.70;53.60;;;;;;2080190;28;737;-50
2021/03/06 00:56:40;;;;;;;;;;;12.70;53.60;;;;;;2077759;28;741;-52
2021/03/06 00:57:59;;;;;;;;;;;12.70;54.20;;;;;;2077396;28;721;-54
2021/03/06 00:59:18;;;;;;;;;;;12.70;53.70;;;;;;2083454;28;1316;-54
2021/03/06 01:00:38;;;;;;;;;;;12.70;53.70;;;;;;2089209;28;1378;-53
2021/03/06 01:02:00;;;;;;;;;;;12.70;53.70;;;;;;2089238;28;1969;-55
2021/03/06 01:03:19;;;;;;;;;;;12.70;53.70;;;;;;2089422;28;1574;-54
2021/03/06 01:04:38;;;;;;;;;;;12.70;53.70;;;;;;2089371;28;755;-53
2021/03/06 01:05:57;;;;;;;;;;;12.60;53.60;;;;;;2088735;28;750;-51
2021/03/06 01:07:17;;;;;;;;;;;12.60;53.60;;;;;;2089061;28;790;-51
2021/03/06 01:08:36;;;;;;;;;;;12.60;53.60;;;;;;2089447;28;730;-55
2021/03/06 01:09:55;;;;;;;;;;;12.60;53.70;;;;;;2089119;28;783;-50
2021/03/06 01:11:14;;;;;;;;;;;12.60;53.70;;;;;;2088796;28;738;-55
2021/03/06 01:12:33;;;;;;;;;;;12.60;53.80;;;;;;2089188;28;741;-51
2021/03/06 01:13:53;;;;;;;;;;;12.60;53.80;;;;;;2080521;28;1392;-54
2021/03/06 01:15:12;;;;;;;;;;;12.60;54.30;;;;;;2081484;28;737;-57
2021/03/06 01:16:31;;;;;;;;;;;12.60;54.30;;;;;;2089354;28;716;-56
2021/03/06 01:17:50;;;;;;;;;;;12.60;53.80;;;;;;2086955;28;975;-53
2021/03/06 01:19:09;;;;;;;;;;;12.60;53.90;;;;;;2092026;28;992;-52
2021/03/06 01:20:28;;;;;;;;;;;12.60;53.80;;;;;;2089634;28;1241;-55
2021/03/06 01:21:48;;;;;;;;;;;12.60;53.90;;;;;;2090774;28;1914;-53
2021/03/06 01:23:07;;;;;;;;;;;12.50;54.00;;;;;;2090847;28;1557;-54
2021/03/06 01:24:26;;;;;;;;;;;12.50;53.80;;;;;;2090344;28;740;-53
2021/03/06 01:25:45;;;;;;;;;;;12.50;53.90;;;;;;2090144;28;768;-52
2021/03/06 01:27:05;;;;;;;;;;;12.50;53.80;;;;;;2089807;28;1029;-54
2021/03/06 01:28:24;;;;;;;;;;;12.50;53.90;;;;;;2090461;28;722;-53
2021/03/06 01:29:43;;;;;;;;;;;12.50;53.90;;;;;;2090632;28;725;-53
2021/03/06 01:31:02;;;;;;;;;;;12.50;53.90;;;;;;2090785;28;734;-55
2021/03/06 01:32:21;;;;;;;;;;;12.50;54.40;;;;;;2090697;28;709;-51
2021/03/06 01:33:40;;;;;;;;;;;12.50;53.90;;;;;;2090959;28;1427;-50
2021/03/06 01:35:00;;;;;;;;;;;12.50;54.50;;;;;;2090327;28;710;-52
2021/03/06 01:36:19;;;;;;;;;;;12.50;53.90;;;;;;2090990;28;737;-50
2021/03/06 01:37:39;;;;;;;;;;;12.50;54.00;;;;;;2090518;28;701;-52
2021/03/06 01:38:58;;;;;;;;;;;12.50;53.90;;;;;;2090086;28;753;-52
2021/03/06 01:40:19;;;;;;;;;;;12.50;53.90;;;;;;2086770;28;720;-51
2021/03/06 01:41:39;;;;;;;;;;;12.50;54.00;;;;;;2090271;28;2188;-52
2021/03/06 01:42:58;;;;;;;;;;;12.50;54.00;;;;;;2089956;28;1423;-50
2021/03/06 01:44:17;;;;;;;;;;;12.40;53.90;;;;;;2089353;28;1410;-52
2021/03/06 01:45:36;;;;;;;;;;;12.40;53.90;;;;;;2082781;28;1388;-51
2021/03/06 01:46:55;;;;;;;;;;;12.40;54.00;;;;;;2090631;28;889;-53
2021/03/06 01:48:15;;;;;;;;;;;12.40;54.50;;;;;;2090725;28;1008;-54
2021/03/06 01:49:34;;;;;;;;;;;12.40;54.50;;;;;;2091222;28;1025;-51
2021/03/06 01:50:53;;;;;;;;;;;12.40;54.00;;;;;;2096634;28;732;-54
2021/03/06 01:52:12;;;;;;;;;;;12.40;54.10;;;;;;2090558;28;1547;-58
2021/03/06 01:53:32;;;;;;;;;;;12.40;54.10;;;;;;2082904;28;1431;-53
2021/03/06 01:54:51;;;;;;;;;;;12.40;54.10;;;;;;2089526;28;746;-53
2021/03/06 01:56:11;;;;;;;;;;;12.40;54.10;;;;;;2090466;28;717;-51
2021/03/06 01:57:30;;;;;;;;;;;12.40;54.10;;;;;;2081930;28;720;-51
2021/03/06 01:58:49;;;;;;;;;;;12.40;54.10;;;;;;2088105;28;1289;-50
2021/03/06 02:00:09;;;;;;;;;;;12.40;54.10;;;;;;2081565;28;843;-52
2021/03/06 02:01:34;;;;;;;;;;;12.40;54.10;;;;;;2081397;28;745;-52
2021/03/06 02:02:53;;;;;;;;;;;12.40;54.10;;;;;;2082123;28;704;-54
2021/03/06 02:04:13;;;;;;;;;;;12.40;54.10;;;;;;2081890;28;745;-54
2021/03/06 02:05:32;;;;;;;;;;;12.30;54.00;;;;;;2081550;28;757;-51
2021/03/06 02:06:51;;;;;;;;;;;12.30;54.10;;;;;;2082269;28;971;-52
2021/03/06 02:08:10;;;;;;;;;;;12.30;54.10;;;;;;2082667;28;735;-54
2021/03/06 02:09:29;;;;;;;;;;;12.30;54.10;;;;;;2081767;28;933;-50
2021/03/06 02:10:49;;;;;;;;;;;12.30;54.10;;;;;;2081858;28;768;-52
2021/03/06 02:12:19;;;;;;;;;;;12.30;54.10;;;;;;2082214;28;690;-51
2021/03/06 02:13:58;;;;;;;;;;;12.30;54.10;;;;;;2073357;28;1325;-53
2021/03/06 02:15:24;;;;;;;;;;;12.30;54.20;;;;;;2080254;28;812;-53
2021/03/06 02:16:44;;;;;;;;;;;12.30;54.20;;;;;;2081845;28;1615;-53
2021/03/06 02:18:05;;;;;;;;;;;12.30;54.20;;;;;;2086369;28;992;-51
2021/03/06 02:19:43;;;;;;;;;;;12.30;54.30;;;;;;2078645;28;1001;-50
2021/03/06 02:21:32;;;;;;;;;;;12.30;54.30;;;;;;2086866;28;1475;-53
2021/03/06 02:22:54;;;;;;;;;;;12.20;54.70;;;;;;2085393;28;1928;-52
2021/03/06 02:24:32;;;;;;;;;;;12.20;54.20;;;;;;2091797;28;1277;-51
2021/03/06 02:26:11;;;;;;;;;;;12.20;54.20;;;;;;2084855;28;1598;-51
2021/03/06 02:27:31;;;;;;;;;;;12.20;54.20;;;;;;2086687;28;1397;-50
2021/03/06 02:29:08;;;;;;;;;;;12.20;54.20;;;;;;2086388;28;1557;-52
2021/03/06 02:30:28;;;;;;;;;;;12.20;54.20;;;;;;2090109;28;1229;-54
2021/03/06 02:31:47;;;;;;;;;;;12.20;54.30;;;;;;2089577;28;779;-51
2021/03/06 02:33:07;;;;;;;;;;;12.20;54.30;;;;;;2086422;28;1490;-49
2021/03/06 02:34:28;;;;;;;;;;;12.20;54.30;;;;;;2086559;28;744;-50
2021/03/06 02:35:47;;;;;;;;;;;12.20;54.30;;;;;;2086520;28;727;-50
2021/03/06 02:37:08;;;;;;;;;;;12.20;54.30;;;;;;2086596;28;718;-51
2021/03/06 02:38:28;;;;;;;;;;;12.20;54.30;;;;;;2086761;28;1632;-51
2021/03/06 02:39:47;;;;;;;;;;;12.20;54.30;;;;;;2084085;28;1444;-53
2021/03/06 02:41:07;;;;;;;;;;;12.20;54.40;;;;;;2090343;28;794;-52
2021/03/06 02:42:28;;;;;;;;;;;12.10;54.30;;;;;;2090217;28;1967;-52
2021/03/06 02:43:47;;;;;;;;;;;12.10;54.30;;;;;;2090229;28;1461;-51
2021/03/06 02:45:06;;;;;;;;;;;12.10;54.30;;;;;;2080818;28;725;-49
2021/03/06 02:46:25;;;;;;;;;;;12.10;54.40;;;;;;2086619;28;724;-57
2021/03/06 02:47:45;;;;;;;;;;;12.10;54.40;;;;;;2085592;28;1011;-52
2021/03/06 02:49:04;;;;;;;;;;;12.10;54.40;;;;;;2093459;28;1115;-52
2021/03/06 02:50:23;;;;;;;;;;;12.10;54.40;;;;;;2093126;28;1218;-51
2021/03/06 02:51:42;;;;;;;;;;;12.10;54.40;;;;;;2089590;28;1036;-52
2021/03/06 02:53:01;;;;;;;;;;;12.10;54.40;;;;;;2090103;28;1146;-52
2021/03/06 02:54:21;;;;;;;;;;;12.10;54.40;;;;;;2089780;28;744;-52
2021/03/06 02:55:40;;;;;;;;;;;12.10;54.40;;;;;;2089387;28;742;-52
2021/03/06 02:56:59;;;;;;;;;;;12.10;54.90;;;;;;2090023;28;702;-49
2021/03/06 02:58:37;;;;;;;;;;;12.10;54.90;;;;;;2089804;28;721;-51
2021/03/06 03:00:02;;;;;;;;;;;12.10;54.90;;;;;;2090303;28;692;-50
2021/03/06 03:01:27;;;;;;;;;;;12.10;54.40;;;;;;2090109;28;693;-50
2021/03/06 03:02:49;;;;;;;;;;;12.10;54.40;;;;;;2080693;28;1906;-54
2021/03/06 03:04:16;;;;;;;;;;;12.10;54.40;;;;;;2084095;28;717;-52
2021/03/06 03:05:41;;;;;;;;;;;12.00;54.40;;;;;;2089489;28;685;-51
2021/03/06 03:07:03;;;;;;;;;;;12.00;54.40;;;;;;2089927;28;1022;-52
2021/03/06 03:08:26;;;;;;;;;;;12.00;54.60;;;;;;2085756;28;1390;-52
2021/03/06 03:09:45;;;;;;;;;;;12.00;54.50;;;;;;2092131;28;739;-51
2021/03/06 03:11:05;;;;;;;;;;;12.00;55.00;;;;;;2094358;28;745;-55
2021/03/06 03:12:24;;;;;;;;;;;12.00;54.50;;;;;;2094823;28;714;-51
2021/03/06 03:13:48;;;;;;;;;;;12.00;54.50;;;;;;2097885;28;1470;-49
2021/03/06 03:15:10;;;;;;;;;;;12.00;54.50;;;;;;2097032;28;757;-55
2021/03/06 03:16:31;;;;;;;;;;;12.00;54.50;;;;;;2098237;28;716;-52
2021/03/06 03:17:51;;;;;;;;;;;12.00;54.60;;;;;;2087253;28;1031;-52
2021/03/06 03:19:15;;;;;;;;;;;12.00;54.60;;;;;;2083384;28;1004;-56
2021/03/06 03:20:38;;;;;;;;;;;12.00;54.60;;;;;;2092278;28;721;-56
2021/03/06 03:21:57;;;;;;;;;;;12.00;54.60;;;;;;2088121;28;1914;-49
2021/03/06 03:23:18;;;;;;;;;;;12.00;54.60;;;;;;2089340;28;1316;-53
2021/03/06 03:24:37;;;;;;;;;;;12.00;55.10;;;;;;2082286;28;881;-52
2021/03/06 03:25:57;;;;;;;;;;;12.00;54.60;;;;;;2092948;28;1027;-50
2021/03/06 03:27:16;;;;;;;;;;;12.00;54.60;;;;;;2086158;28;1152;-55
2021/03/06 03:28:36;;;;;;;;;;;11.90;54.50;;;;;;2086054;28;942;-49
2021/03/06 03:29:56;;;;;;;;;;;11.90;54.50;;;;;;2085935;28;734;-52
2021/03/06 03:31:16;;;;;;;;;;;11.90;54.60;;;;;;2085522;28;709;-53
2021/03/06 03:32:35;;;;;;;;;;;11.90;54.50;;;;;;2089362;28;727;-50
2021/03/06 03:33:54;;;;;;;;;;;11.90;54.60;;;;;;2088796;28;1474;-53
2021/03/06 03:35:14;;;;;;;;;;;11.90;54.50;;;;;;2088654;28;734;-55
2021/03/06 03:36:33;;;;;;;;;;;11.90;54.60;;;;;;2088776;28;714;-54
2021/03/06 03:37:53;;;;;;;;;;;11.90;55.10;;;;;;2085757;28;1774;-53
2021/03/06 03:39:12;;;;;;;;;;;11.90;55.10;;;;;;2092277;28;1088;-55
2021/03/06 03:40:32;;;;;;;;;;;11.90;54.60;;;;;;2078750;28;933;-51
2021/03/06 03:41:51;;;;;;;;;;;11.90;54.70;;;;;;2080840;28;1963;-52
2021/03/06 03:43:10;;;;;;;;;;;11.90;54.70;;;;;;2083631;28;1515;-51
2021/03/06 03:44:30;;;;;;;;;;;11.80;54.60;;;;;;2089088;28;973;-49
2021/03/06 03:45:50;;;;;;;;;;;11.90;54.70;;;;;;2072214;28;1434;-56
2021/03/06 03:47:09;;;;;;;;;;;11.80;54.60;;;;;;2073694;28;1250;-56
2021/03/06 03:48:28;;;;;;;;;;;11.80;54.70;;;;;;2085634;28;1061;-50
2021/03/06 03:49:48;;;;;;;;;;;11.80;54.70;;;;;;2089808;28;744;-50
2021/03/06 03:51:07;;;;;;;;;;;11.80;54.70;;;;;;2089759;28;705;-59
2021/03/06 03:52:26;;;;;;;;;;;11.80;54.60;;;;;;2089885;28;738;-51
2021/03/06 03:53:45;;;;;;;;;;;11.80;55.20;;;;;;2088795;28;1363;-53
2021/03/06 03:55:07;;;;;;;;;;;11.80;55.20;;;;;;2085112;28;752;-52
2021/03/06 03:56:27;;;;;;;;;;;11.80;54.70;;;;;;2086060;28;1048;-52
2021/03/06 03:57:46;;;;;;;;;;;11.80;54.70;;;;;;2089693;28;1307;-52
2021/03/06 03:59:06;;;;;;;;;;;11.80;54.70;;;;;;2080947;28;1378;-54
2021/03/06 04:00:25;;;;;;;;;;;11.80;55.20;;;;;;2086258;28;760;-55
2021/03/06 04:01:45;;;;;;;;;;;11.80;54.70;;;;;;2089264;28;732;-51
2021/03/06 04:03:04;;;;;;;;;;;11.80;54.70;;;;;;2089336;28;810;-55
2021/03/06 04:04:24;;;;;;;;;;;11.80;54.70;;;;;;2089042;28;781;-55
2021/03/06 04:05:43;;;;;;;;;;;11.80;54.70;;;;;;2085248;28;779;-53
2021/03/06 04:07:02;;;;;;;;;;;11.80;55.30;;;;;;2092951;28;1301;-53
2021/03/06 04:08:22;;;;;;;;;;;11.80;55.30;;;;;;2093074;28;988;-54
2021/03/06 04:09:41;;;;;;;;;;;11.70;54.80;;;;;;2096297;28;1032;-49
2021/03/06 04:11:00;;;;;;;;;;;11.70;54.80;;;;;;2093740;28;1105;-53
2021/03/06 04:12:20;;;;;;;;;;;11.70;54.80;;;;;;2097594;28;775;-56
2021/03/06 04:13:39;;;;;;;;;;;11.70;54.80;;;;;;2097407;28;1423;-56
2021/03/06 04:14:58;;;;;;;;;;;11.70;54.80;;;;;;2097433;28;787;-54
2021/03/06 04:16:18;;;;;;;;;;;11.70;54.80;;;;;;2097785;28;784;-53
2021/03/06 04:17:37;;;;;;;;;;;11.70;54.80;;;;;;2097579;28;771;-55
2021/03/06 04:18:56;;;;;;;;;;;11.70;54.80;;;;;;2095448;28;1205;-57
2021/03/06 04:20:18;;;;;;;;;;;11.70;54.80;;;;;;2087101;28;1238;-51
2021/03/06 04:21:37;;;;;;;;;;;11.70;54.90;;;;;;2089661;28;1432;-51
2021/03/06 04:22:57;;;;;;;;;;;11.70;54.80;;;;;;2094551;28;1340;-53
2021/03/06 04:24:16;;;;;;;;;;;11.70;54.80;;;;;;2090010;28;1402;-53
2021/03/06 04:25:35;;;;;;;;;;;11.70;54.80;;;;;;2089769;28;1273;-51
2021/03/06 04:26:54;;;;;;;;;;;11.70;54.90;;;;;;2087834;28;1233;-52
2021/03/06 04:28:14;;;;;;;;;;;11.70;54.90;;;;;;2091351;28;1409;-51
2021/03/06 04:29:33;;;;;;;;;;;11.70;54.80;;;;;;2091301;28;1280;-52
2021/03/06 04:30:52;;;;;;;;;;;11.70;55.00;;;;;;2091238;28;1160;-52
2021/03/06 04:32:11;;;;;;;;;;;11.60;54.80;;;;;;2089680;28;1352;-51
2021/03/06 04:33:31;;;;;;;;;;;11.60;54.80;;;;;;2086052;28;1446;-55
2021/03/06 04:34:50;;;;;;;;;;;11.60;54.80;;;;;;2096192;28;1397;-53
2021/03/06 04:36:09;;;;;;;;;;;11.60;54.80;;;;;;2092381;28;1038;-50
2021/03/06 04:37:28;;;;;;;;;;;11.60;54.80;;;;;;2095425;28;1265;-53
2021/03/06 04:38:47;;;;;;;;;;;11.60;54.90;;;;;;2090470;28;1389;-50
2021/03/06 04:40:07;;;;;;;;;;;11.60;55.00;;;;;;2088423;28;1403;-53
2021/03/06 04:41:26;;;;;;;;;;;11.60;55.50;;;;;;2091925;28;1729;-53
2021/03/06 04:42:45;;;;;;;;;;;11.60;54.90;;;;;;2086629;28;1997;-53
2021/03/06 04:44:05;;;;;;;;;;;11.60;55.00;;;;;;2086288;28;1357;-53
2021/03/06 04:45:24;;;;;;;;;;;11.60;55.00;;;;;;2087917;28;1253;-55
2021/03/06 04:46:43;;;;;;;;;;;11.60;55.00;;;;;;2088261;28;1231;-55
2021/03/06 04:48:03;;;;;;;;;;;11.60;55.00;;;;;;2089457;28;1298;-49
2021/03/06 04:49:23;;;;;;;;;;;11.60;55.00;;;;;;2094428;28;1204;-53
2021/03/06 04:50:42;;;;;;;;;;;11.60;55.00;;;;;;2081366;28;1158;-52
2021/03/06 04:52:01;;;;;;;;;;;11.60;55.10;;;;;;2091548;28;1235;-56
2021/03/06 04:53:20;;;;;;;;;;;11.60;55.20;;;;;;2096003;28;1525;-56
2021/03/06 04:54:40;;;;;;;;;;;11.60;55.20;;;;;;2090790;28;1380;-52
2021/03/06 04:55:59;;;;;;;;;;;11.60;55.20;;;;;;2095442;28;1025;-53
2021/03/06 04:57:18;;;;;;;;;;;11.60;55.10;;;;;;2090894;28;1224;-51
2021/03/06 04:58:37;;;;;;;;;;;11.60;55.50;;;;;;2092049;28;1223;-51
2021/03/06 04:59:56;;;;;;;;;;;11.70;55.00;;;;;;2095942;28;1255;-53
2021/03/06 05:01:15;;;;;;;;;;;11.70;54.90;;;;;;2094099;28;1233;-52
2021/03/06 05:02:35;;;;;;;;;;;11.80;54.80;;;;;;2091215;28;1902;-53
2021/03/06 05:03:54;;;;;;;;;;;11.80;54.70;;;;;;2098038;28;1433;-55
2021/03/06 05:05:13;;;;;;;;;;;11.90;54.70;;;;;;2094256;28;1219;-54
2021/03/06 05:06:32;;;;;;;;;;;11.90;54.50;;;;;;2096819;28;1350;-51
2021/03/06 05:07:51;;;;;;;;;;;12.00;54.40;;;;;;2092250;28;1440;-49
2021/03/06 05:09:11;;;;;;;;;;;12.00;54.30;;;;;;2094672;28;1035;-50
2021/03/06 05:10:30;;;;;;;;;;;12.00;54.10;;;;;;2087913;28;1118;-51
2021/03/06 05:11:49;;;;;;;;;;;12.10;54.00;;;;;;2088272;28;1141;-53
2021/03/06 05:13:09;;;;;;;;;;;12.10;53.80;;;;;;2089257;28;1376;-55
2021/03/06 05:14:28;;;;;;;;;;;12.20;53.80;;;;;;2094916;28;1248;-52
2021/03/06 05:15:47;;;;;;;;;;;12.30;54.30;;;;;;2096640;28;1180;-55
2021/03/06 05:17:06;;;;;;;;;;;12.30;53.60;;;;;;2097156;28;1252;-54
2021/03/06 05:18:25;;;;;;;;;;;12.30;53.40;;;;;;2095509;28;1846;-53
2021/03/06 05:19:45;;;;;;;;;;;12.40;53.40;;;;;;2095814;28;1353;-53
2021/03/06 05:21:04;;;;;;;;;;;12.40;53.20;;;;;;2092092;28;1193;-51
2021/03/06 05:22:23;;;;;;;;;;;12.50;53.10;;;;;;2097219;28;1914;-51
2021/03/06 05:23:43;;;;;;;;;;;12.60;53.00;;;;;;2095728;28;1504;-53
2021/03/06 05:25:02;;;;;;;;;;;12.60;52.90;;;;;;2094784;28;1339;-55
2021/03/06 05:26:21;;;;;;;;;;;12.70;52.80;;;;;;2094938;28;1175;-55
2021/03/06 05:27:40;;;;;;;;;;;12.80;52.70;;;;;;2097530;28;1405;-53
2021/03/06 05:29:00;;;;;;;;;;;12.80;52.50;;;;;;2093876;28;1173;-52
2021/03/06 05:30:19;;;;;;;;;;;12.80;52.40;;;;;;2096941;28;1394;-54
2021/03/06 05:31:39;;;;;;;;;;;12.90;52.30;;;;;;2097677;28;1280;-54
2021/03/06 05:32:58;;;;;;;;;;;13.00;52.80;;;;;;2092216;28;892;-50
2021/03/06 05:34:17;;;;;;;;;;;13.00;52.60;;;;;;2096600;28;1151;-54
2021/03/06 05:35:36;;;;;;;;;;;13.10;52.10;;;;;;2090244;28;1168;-52
2021/03/06 05:36:55;;;;;;;;;;;13.10;51.90;;;;;;2090016;28;1323;-57
2021/03/06 05:38:15;;;;;;;;;;;13.10;51.80;;;;;;2092872;28;1746;-52
2021/03/06 05:39:34;;;;;;;;;;;13.20;51.70;;;;;;2087793;28;1454;-55
2021/03/06 05:40:53;;;;;;;;;;;13.30;51.70;;;;;;2089340;28;1509;-53
2021/03/06 05:42:12;;;;;;;;;;;13.30;51.70;;;;;;2090214;28;1906;-53
2021/03/06 05:43:32;;;;;;;;;;;13.40;51.60;;;;;;2080302;28;1416;-52
2021/03/06 05:44:51;;;;;;;;;;;13.50;51.60;;;;;;2081609;28;1215;-52
2021/03/06 05:46:10;;;;;;;;;;;13.50;51.40;;;;;;2082610;28;1023;-50
2021/03/06 05:47:30;;;;;;;;;;;13.60;51.30;;;;;;2081014;28;1210;-55
2021/03/06 05:48:52;;;;;;;;;;;13.60;51.20;;;;;;2087844;28;1790;-56
2021/03/06 05:50:11;;;;;;;;;;;13.70;51.10;;;;;;2092483;28;1479;-54
2021/03/06 05:51:37;;;;;;;;;;;13.70;50.90;;;;;;2090002;28;1282;-52
2021/03/06 05:52:56;;;;;;;;;;;13.80;50.90;;;;;;2089657;28;1027;-60
2021/03/06 05:54:15;;;;;;;;;;;13.80;50.70;;;;;;2091343;28;996;-51
2021/03/06 05:55:35;;;;;;;;;;;13.90;50.70;;;;;;2093429;28;757;-55
2021/03/06 05:56:54;;;;;;;;;;;13.90;50.60;;;;;;2091503;28;728;-53
2021/03/06 05:58:13;;;;;;;;;;;13.90;50.50;;;;;;2083266;28;726;-58
2021/03/06 05:59:32;;;;;;;;;;;13.90;50.30;;;;;;2076160;28;927;-53
2021/03/06 06:00:51;;;;;;;;;;;13.40;42.90;;;;;;2074833;28;992;-57
2021/03/06 06:02:11;;;;;;;;;;;12.90;42.30;;;;;;2082198;28;1906;-60
2021/03/06 06:03:30;;;;;;;;;;;12.80;44.90;;;;;;2082939;28;1505;-53
2021/03/06 06:04:49;;;;;;;;;;;12.80;44.70;;;;;;2084557;28;1321;-57
2021/03/06 06:06:09;;;;;;;;;;;13.00;44.30;;;;;;2085530;28;738;-60
2021/03/06 06:07:28;;;;;;;;;;;13.00;43.80;;;;;;2089586;28;696;-51
2021/03/06 06:08:47;;;;;;;;;;;13.10;43.50;;;;;;2090191;28;737;-57
2021/03/06 06:10:07;;;;;;;;;;;13.20;43.40;;;;;;2090164;28;726;-54
2021/03/06 06:11:29;;;;;;;;;;;13.20;43.20;;;;;;2090837;28;719;-52
2021/03/06 06:12:48;;;;;;;;;;;13.30;43.00;;;;;;2089997;28;792;-53
2021/03/06 06:14:07;;;;;;;;;;;13.30;43.60;;;;;;2086498;28;1313;-58
2021/03/06 06:15:27;;;;;;;;;;;13.30;43.60;;;;;;2086113;28;784;-50
2021/03/06 06:16:46;;;;;;;;;;;13.30;43.20;;;;;;2090160;28;744;-57
2021/03/06 06:18:05;;;;;;;;;;;13.30;43.40;;;;;;2089660;28;733;-54
2021/03/06 06:19:25;;;;;;;;;;;13.30;43.60;;;;;;2086766;28;1440;-54
2021/03/06 06:20:44;;;;;;;;;;;13.30;43.80;;;;;;2078233;28;1153;-52
2021/03/06 06:22:19;;;;;;;;;;;13.30;43.90;;;;;;2087734;28;2003;-56
2021/03/06 06:23:39;;;;;;;;;;;13.30;44.00;;;;;;2084883;28;1463;-54
2021/03/06 06:24:58;;;;;;;;;;;13.30;44.30;;;;;;2098157;28;780;-53
2021/03/06 06:26:17;;;;;;;;;;;13.20;44.30;;;;;;2098102;28;726;-49
2021/03/06 06:27:36;;;;;;;;;;;13.30;44.50;;;;;;2095075;28;709;-54
2021/03/06 06:28:55;;;;;;;;;;;13.20;44.60;;;;;;2089243;28;1061;-52
2021/03/06 06:30:15;;;;;;;;;;;13.20;44.70;;;;;;2098472;28;766;-58
2021/03/06 06:31:34;;;;;;;;;;;13.10;45.40;;;;;;2082241;28;699;-54
2021/03/06 06:32:54;;;;;;;;;;;13.10;45.60;;;;;;2082160;28;764;-50
2021/03/06 06:34:13;;;;;;;;;;;13.10;45.20;;;;;;2081795;28;717;-52
2021/03/06 06:35:42;;;;;;;;;;;13.10;45.30;;;;;;2081182;28;722;-51
2021/03/06 06:37:11;;;;;;;;;;;13.10;45.50;;;;;;2081693;28;742;-53
2021/03/06 06:38:40;;;;;;;;;;;13.10;46.20;;;;;;2088132;28;1595;-55
2021/03/06 06:39:59;;;;;;;;;;;13.00;45.70;;;;;;2083601;28;1100;-53
2021/03/06 06:41:18;;;;;;;;;;;13.00;45.90;;;;;;2083192;28;2016;-54
2021/03/06 06:42:37;;;;;;;;;;;13.00;46.00;;;;;;2086342;28;1899;-52
2021/03/06 06:46:28;;;;;;;;;;;12.90;46.20;;;;;;2077869;28;2014;-52
2021/03/06 06:47:48;;;;;;;;;;;12.90;46.50;;;;;;2089146;28;857;-52
2021/03/06 06:49:07;;;;;;;;;;;12.90;46.60;;;;;;2091800;28;928;-51
2021/03/06 06:50:27;;;;;;;;;;;12.90;46.70;;;;;;2090019;28;1031;-52
2021/03/06 06:52:02;;;;;;;;;;;12.80;46.80;;;;;;2086523;28;948;-52
2021/03/06 06:53:22;;;;;;;;;;;12.80;46.90;;;;;;2095986;28;1549;-52
2021/03/06 06:54:42;;;;;;;;;;;12.80;47.00;;;;;;2086388;28;1934;-52
2021/03/06 06:56:01;;;;;;;;;;;12.80;47.10;;;;;;2078366;28;1284;-52
2021/03/06 06:57:20;;;;;;;;;;;12.80;47.80;;;;;;2083927;28;2445;-54
2021/03/06 06:58:39;;;;;;;;;;;12.80;47.40;;;;;;2089930;28;1321;-56
2021/03/06 06:59:59;;;;;;;;;;;12.80;47.50;;;;;;2094016;28;1024;-52
2021/03/06 07:01:31;;;;;;;;;;;12.70;48.00;;;;;;2090607;28;975;-53
2021/03/06 07:02:50;;;;;;;;;;;12.70;47.50;;;;;;2089479;28;1902;-52
2021/03/06 07:04:10;;;;;;;;;;;12.70;47.60;;;;;;2089790;28;1379;-55
2021/03/06 07:05:38;;;;;;;;;;;12.70;47.70;;;;;;2088789;28;1065;-51
2021/03/06 07:06:58;;;;;;;;;;;12.70;47.90;;;;;;2097703;28;824;-53
2021/03/06 07:08:23;;;;;;;;;;;12.70;48.50;;;;;;2098231;28;769;-53
2021/03/06 07:09:58;;;;;;;;;;;12.60;47.90;;;;;;2086755;28;1108;-57
2021/03/06 07:11:26;;;;;;;;;;;12.60;48.10;;;;;;2097097;28;723;-57
2021/03/06 07:12:46;;;;;;;;;;;12.60;48.10;;;;;;2089491;28;1484;-55
2021/03/06 07:14:05;;;;;;;;;;;12.60;48.20;;;;;;2086123;28;1494;-55
2021/03/06 07:15:25;;;;;;;;;;;12.60;48.30;;;;;;2089153;28;779;-53
2021/03/06 07:16:57;;;;;;;;;;;12.60;48.40;;;;;;2089802;28;725;-54
2021/03/06 07:18:16;;;;;;;;;;;12.60;48.40;;;;;;2089423;28;750;-53
2021/03/06 07:19:39;;;;;;;;;;;12.70;48.60;;;;;;2085467;28;1710;-52
2021/03/06 07:20:59;;;;;;;;;;;12.70;48.60;;;;;;2086383;28;1681;-53
2021/03/06 07:22:26;;;;;;;;;;;12.70;48.50;;;;;;2088464;28;1922;-54
2021/03/06 07:23:45;;;;;;;;;;;12.80;48.50;;;;;;2089942;28;1376;-51
2021/03/06 07:25:05;;;;;;;;;;;12.80;48.50;;;;;;2089272;28;1494;-53
2021/03/06 07:26:24;;;;;;;;;;;12.80;48.40;;;;;;2089607;28;1420;-57
2021/03/06 07:27:43;;;;;;;;;;;12.90;48.50;;;;;;2096176;28;892;-52
2021/03/06 07:29:02;;;;;;;;;;;12.90;48.40;;;;;;2093542;28;1115;-55
2021/03/06 07:30:21;;;;;;;;;;;13.00;48.50;;;;;;2097909;28;716;-50
2021/03/06 07:31:41;;;;;;;;;;;13.00;48.40;;;;;;2089287;28;721;-55
2021/03/06 07:33:03;;;;;;;;;;;13.00;48.30;;;;;;2094348;28;780;-51
2021/03/06 07:34:23;;;;;;;;;;;13.10;48.90;;;;;;2098105;28;723;-51
2021/03/06 07:35:43;;;;;;;;;;;13.10;48.30;;;;;;2085449;28;2105;-51
2021/03/06 07:37:03;;;;;;;;;;;13.10;48.20;;;;;;2081480;28;1572;-55
2021/03/06 07:38:23;;;;;;;;;;;13.20;48.20;;;;;;2069739;28;1768;-51
2021/03/06 07:39:42;;;;;;;;;;;13.20;48.20;;;;;;2076571;28;2067;-53
2021/03/06 07:41:02;;;;;;;;;;;13.20;48.20;;;;;;2085309;28;1216;-54
2021/03/06 07:42:25;;;;;;;;;;;13.30;48.20;;;;;;2076098;28;2014;-51
2021/03/06 07:43:46;;;;;;;;;;;13.30;48.20;;;;;;2088982;28;1430;-54
2021/03/06 07:45:05;;;;;;;;;;;13.30;48.20;;;;;;2094833;28;1322;-50
2021/03/06 07:46:25;;;;;;;;;;;13.30;48.70;;;;;;2083901;28;1091;-53
2021/03/06 07:47:45;;;;;;;;;;;13.30;48.20;;;;;;2093275;28;1222;-54
2021/03/06 07:49:13;;;;;;;;;;;13.30;48.30;;;;;;2094082;28;1368;-51
2021/03/06 07:50:32;;;;;;;;;;;13.30;48.30;;;;;;2095294;28;1135;-59
2021/03/06 07:51:52;;;;;;;;;;;13.30;48.40;;;;;;2088228;28;1195;-51
2021/03/06 07:53:12;;;;;;;;;;;13.30;48.40;;;;;;2092426;28;1513;-51
2021/03/06 07:54:31;;;;;;;;;;;13.20;48.40;;;;;;2091241;28;1581;-52
2021/03/06 07:55:50;;;;;;;;;;;13.20;48.50;;;;;;2096506;28;936;-53
2021/03/06 07:57:09;;;;;;;;;;;13.20;48.60;;;;;;2088269;28;1193;-51
2021/03/06 07:58:34;;;;;;;;;;;13.20;48.60;;;;;;2093039;28;1037;-56
2021/03/06 07:59:53;;;;;;;;;;;13.20;48.70;;;;;;2093011;28;1247;-51
2021/03/06 08:01:25;;;;;;;;;;;13.20;48.80;;;;;;2093332;28;1272;-56